ADDS METAR Data INFO
IDs: Format: Raw Decoded Include TAF

Data at: 0316 UTC 20 Jul 2018

KYNG 200251Z 11004KT 10SM FEW250 20/15 A3003 RMK AO2 SLP163 T02000150 53003 $
KYNG 200151Z 12005KT 10SM FEW250 21/16 A3003 RMK AO2 SLP162 T02110156 $
KYNG 200051Z 11003KT 10SM SCT250 23/16 A3003 RMK AO2 SLP161 T02280156 $
KYNG 192351Z 11005KT 10SM SCT250 26/14 A3002 RMK AO2 SLP160 T02610144 10283 20261 58009 $
KYNG 192251Z 12007KT 10SM BKN250 28/14 A3003 RMK AO2 SLP163 T02780139 $
KYNG 192151Z 11006KT 10SM BKN250 28/14 A3005 RMK AO2 SLP169 T02780139 $
KYNG 192051Z 13007KT 10SM BKN250 28/13 A3005 RMK AO2 SLP170 T02830128 56015
KYNG 191951Z 14005KT 10SM BKN250 28/13 A3006 RMK AO2 SLP174 T02780128
KYNG 191851Z 12007KT 080V150 10SM FEW060 SCT250 28/12 A3008 RMK AO2 SLP180 T02780122
KYNG 191751Z VRB05KT 10SM FEW055 SCT250 27/13 A3010 RMK AO2 SLP185 T02670128 10267 20172 58012
KYNG 191651Z 14007KT 10SM SCT048 SCT250 26/13 A3012 RMK AO2 SLP193 T02560133
KYNG 191551Z VRB03KT 10SM SCT040 SCT250 24/13 A3012 RMK AO2 SLP195 T02440128
KYNG 191451Z 15006KT 10SM FEW021 FEW250 23/13 A3013 RMK AO2 SLP197 T02330128 50005
KYNG 191351Z VRB03KT 10SM FEW250 22/14 A3014 RMK AO2 SLP200 T02170139
KYNG 191251Z 10004KT 10SM FEW250 19/13 A3013 RMK AO2 SLP198 T01940133
KYNG 191151Z 10003KT 10SM FEW250 17/14 A3012 RMK AO2 SLP193 T01720139 10172 20111 53004
KYNG 191051Z 09005KT 10SM FEW250 14/12 A3011 RMK AO2 SLP192 T01390122
KYNG 190951Z 11005KT 10SM FEW250 13/12 A3011 RMK AO2 SLP190 T01330122
KYNG 190851Z 10005KT 10SM FEW250 12/11 A3010 RMK AO2 SLP190 T01220111 50004
KYNG 190751Z 00000KT 10SM FEW250 13/12 A3011 RMK AO2 SLP191 T01280122
KYNG 190651Z 00000KT 10SM FEW250 14/12 A3010 RMK AO2 SLP187 T01390122
KYNG 190551Z 00000KT 10SM FEW250 14/12 A3009 RMK AO2 SLP185 T01440117 10233 20139 50003
KYNG 190451Z 00000KT 10SM FEW250 14/13 A3010 RMK AO2 SLP187 T01440128 402670117
KYNG 190351Z 00000KT 10SM CLR 16/13 A3009 RMK AO2 SLP185 T01560128
KYNG 190251Z 04005KT 10SM CLR 18/12 A3009 RMK AO2 SLP182 T01830117 53009
KYNG 190151Z 36007KT 10SM FEW060 19/12 A3007 RMK AO2 SLP178 T01940122
KYNG 190051Z 01007KT 10SM FEW060 21/13 A3006 RMK AO2 SLP174 T02060133
KYNG 182351Z 01008G20KT 10SM FEW060 23/14 A3006 RMK AO2 SLP172 T02330144 10267 20233 53000
KYNG 182251Z 01010KT 10SM FEW055 25/14 A3005 RMK AO2 SLP170 T02500144
KYNG 182151Z 01007KT 10SM SCT050 25/14 A3005 RMK AO2 SLP171 T02500144
KYNG 182051Z 34007KT 10SM BKN050 25/12 A3006 RMK AO2 SLP173 T02500122 58009
KYNG 181951Z VRB05KT 10SM BKN050 26/12 A3006 RMK AO2 SLP174 T02610122
KYNG 181851Z 32006KT 10SM BKN050 26/12 A3008 RMK AO2 SLP179 T02610122
KYNG 181751Z VRB05KT 10SM BKN046 25/12 A3008 RMK AO2 SLP181 T02500122 10256 20167 58007
KYNG 181651Z VRB03KT 10SM BKN040 24/13 A3009 RMK AO2 SLP185 T02440133
KYNG 181551Z 05007KT 030V090 10SM BKN034 23/13 A3010 RMK AO2 SLP187 T02330128